Time;durP1;ratioP1;P1;durP2;ratioP2;P2;SDS_P1;SDS_P2;PMS_P1;PMS_P2;Temp;Humidity;BMP_temperature;BMP_pressure;BME280_temperature;BME280_humidity;BME280_pressure;Samples;Min_cycle;Max_cycle;Signal;HPM_P1;HPM_P2
2022/06/29 00:00:43;;;;;;;;;;;15.30;99.90;;;;;;5012744;28;20054;-54
2022/06/29 00:03:10;;;;;;;8.25;7.20;;;15.20;99.90;;;;;;5013695;28;19925;-54
2022/06/29 00:05:37;;;;;;;14.40;7.50;;;15.10;99.90;;;;;;5013755;28;20803;-54
2022/06/29 00:08:04;;;;;;;9.00;7.85;;;15.10;99.90;;;;;;5005366;28;20045;-53
2022/06/29 00:10:35;;;;;;;10.60;7.72;;;15.00;99.90;;;;;;4994263;28;20161;-53
2022/06/29 00:13:02;;;;;;;5.93;5.20;;;15.00;99.90;;;;;;4993402;28;20586;-52
2022/06/29 00:15:30;;;;;;;8.30;5.82;;;14.90;99.90;;;;;;4999919;28;20051;-54
2022/06/29 00:17:57;;;;;;;8.85;5.88;;;14.90;99.90;;;;;;5013255;28;20535;-51
2022/06/29 00:20:24;;;;;;;6.15;5.55;;;14.90;99.90;;;;;;5011309;28;20228;-53
2022/06/29 00:22:51;;;;;;;7.55;6.80;;;14.90;99.90;;;;;;5013641;28;20045;-55
2022/06/29 00:25:17;;;;;;;7.93;6.57;;;14.90;99.90;;;;;;5011947;28;20579;-59
2022/06/29 00:27:44;;;;;;;;;;;14.90;99.90;;;;;;5008479;28;20045;-55
2022/06/29 00:30:12;;;;;;;8.07;6.82;;;14.80;99.90;;;;;;5005917;28;19921;-54
2022/06/29 00:32:40;;;;;;;7.88;6.78;;;14.80;99.90;;;;;;5013161;28;20049;-55
2022/06/29 00:35:08;;;;;;;8.63;5.93;;;14.80;99.90;;;;;;5016514;28;20075;-53
2022/06/29 00:37:35;;;;;;;12.00;7.85;;;14.80;99.90;;;;;;5013411;28;20041;-54
2022/06/29 00:40:03;;;;;;;6.53;5.90;;;14.80;99.90;;;;;;5012990;28;20049;-55
2022/06/29 00:42:31;;;;;;;5.70;5.20;;;14.80;99.90;;;;;;5010598;28;20041;-53
2022/06/29 00:44:59;;;;;;;8.38;7.47;;;14.80;99.90;;;;;;5003104;28;20054;-53
2022/06/29 00:47:26;;;;;;;8.15;6.05;;;14.80;99.90;;;;;;5012789;28;20048;-55
2022/06/29 00:49:53;;;;;;;7.22;6.00;;;14.80;99.90;;;;;;5011035;28;20065;-53
2022/06/29 00:52:22;;;;;;;;;;;14.80;99.90;;;;;;5013059;28;20041;-55
2022/06/29 00:55:02;;;;;;;9.15;7.10;;;14.70;99.90;;;;;;5012359;28;19921;-55
2022/06/29 00:57:30;;;;;;;7.10;6.38;;;14.80;99.90;;;;;;5012345;28;20048;-53
2022/06/29 00:59:59;;;;;;;9.05;7.00;;;14.80;99.90;;;;;;5012549;28;20052;-55
2022/06/29 01:02:34;;;;;;;8.27;6.72;;;14.80;99.90;;;;;;5012764;28;20095;-54
2022/06/29 01:05:03;;;;;;;9.98;7.22;;;14.70;99.90;;;;;;5012111;28;20049;-53
2022/06/29 01:07:32;;;;;;;8.82;6.18;;;14.80;99.90;;;;;;5010417;28;20557;-55
2022/06/29 01:10:00;;;;;;;5.63;5.13;;;14.70;99.90;;;;;;5008615;28;20045;-53
2022/06/29 01:12:27;;;;;;;7.32;6.47;;;14.70;99.90;;;;;;5011938;28;20061;-56
2022/06/29 01:14:55;;;;;;;9.10;6.65;;;14.70;99.90;;;;;;5012723;28;20048;-53
2022/06/29 01:17:23;;;;;;;9.60;6.53;;;14.70;99.90;;;;;;5013095;28;20045;-55
2022/06/29 01:19:51;;;;;;;7.75;6.50;;;14.70;99.90;;;;;;5011840;28;20115;-53
2022/06/29 01:22:20;;;;;;;7.15;6.45;;;14.60;99.90;;;;;;5012730;28;20459;-53
2022/06/29 01:24:48;;;;;;;7.78;6.93;;;14.60;99.90;;;;;;5012340;28;20061;-54
2022/06/29 01:27:17;;;;;;;9.13;7.50;;;14.60;99.90;;;;;;5012570;28;20855;-54
2022/06/29 01:29:44;;;;;;;12.48;8.30;;;14.50;99.90;;;;;;5012331;28;20052;-54
2022/06/29 01:32:11;;;;;;;12.20;8.95;;;14.50;99.90;;;;;;5012196;28;20060;-55
2022/06/29 01:34:39;;;;;;;12.45;8.85;;;14.50;99.90;;;;;;5017155;28;20055;-53
2022/06/29 01:37:07;;;;;;;9.27;8.27;;;14.40;99.90;;;;;;5012279;28;20041;-54
2022/06/29 01:39:34;;;;;;;13.13;8.35;;;14.40;99.90;;;;;;5012388;28;20053;-54
2022/06/29 01:42:02;;;;;;;12.50;8.57;;;14.30;99.90;;;;;;5003383;28;20325;-54
2022/06/29 01:44:29;;;;;;;14.13;9.02;;;14.30;99.90;;;;;;4992690;28;20046;-53
2022/06/29 01:46:56;;;;;;;10.88;7.82;;;14.30;99.90;;;;;;4992746;28;20050;-53
2022/06/29 01:49:23;;;;;;;15.45;9.43;;;14.30;99.90;;;;;;5012388;28;20045;-52
2022/06/29 01:51:50;;;;;;;15.43;9.02;;;14.20;99.90;;;;;;5013260;28;20720;-52
2022/06/29 01:54:17;;;;;;;16.83;9.68;;;14.20;99.90;;;;;;5011592;28;20045;-53
2022/06/29 01:56:43;;;;;;;13.45;9.73;;;14.20;99.90;;;;;;5011619;28;20064;-54
2022/06/29 01:59:10;;;;;;;8.38;7.57;;;14.10;99.90;;;;;;5011808;28;20041;-54
2022/06/29 02:01:37;;;;;;;6.82;6.13;;;14.10;99.90;;;;;;5011537;28;20069;-54
2022/06/29 02:04:04;;;;;;;10.68;8.18;;;14.10;99.90;;;;;;5011688;28;20045;-51
2022/06/29 02:06:31;;;;;;;13.75;9.82;;;14.10;99.90;;;;;;5012416;28;20750;-52
2022/06/29 02:08:58;;;;;;;10.55;8.60;;;14.20;99.90;;;;;;5010968;28;20075;-54
2022/06/29 02:11:25;;;;;;;;;;;14.20;99.90;;;;;;4994666;28;20057;-55
2022/06/29 02:13:52;;;;;;;14.00;8.65;;;14.20;99.90;;;;;;4992599;28;19991;-56
2022/06/29 02:16:19;;;;;;;;;;;14.20;99.90;;;;;;4992735;28;20238;-55
2022/06/29 02:18:47;;;;;;;13.23;8.40;;;14.30;99.90;;;;;;5009266;28;19932;-55
2022/06/29 02:21:14;;;;;;;13.57;9.10;;;14.30;99.90;;;;;;5012008;28;20482;-53
2022/06/29 02:23:40;;;;;;;;;;;14.30;99.90;;;;;;5013898;28;20045;-54
2022/06/29 02:26:07;;;;;;;8.13;6.95;;;14.30;99.90;;;;;;5015525;28;19978;-55
2022/06/29 02:28:34;;;;;;;11.18;7.35;;;14.30;99.90;;;;;;5015359;28;20052;-51
2022/06/29 02:36:32;;;;;;;10.18;7.93;;;14.50;99.90;;;;;;5025702;28;20106;-54
2022/06/29 02:39:00;;;;;;;10.93;7.72;;;14.50;99.90;;;;;;5035983;28;20091;-55
2022/06/29 02:41:27;;;;;;;8.52;7.63;;;14.50;99.90;;;;;;5027320;28;20508;-54
2022/06/29 02:43:54;;;;;;;11.25;8.40;;;14.50;99.90;;;;;;5016205;28;20042;-54
2022/06/29 02:46:21;;;;;;;12.25;8.23;;;14.50;99.90;;;;;;5016943;28;20065;-54
2022/06/29 02:48:47;;;;;;;;;;;14.50;99.90;;;;;;5016560;28;20115;-53
2022/06/29 02:51:14;;;;;;;9.32;7.72;;;14.50;99.90;;;;;;5016575;28;19924;-54
2022/06/29 02:53:41;;;;;;;;;;;14.50;99.90;;;;;;5016928;28;20049;-54
2022/06/29 02:56:08;;;;;;;6.15;5.15;;;14.50;99.90;;;;;;5014094;28;20790;-52
2022/06/29 02:58:34;;;;;;;;;;;14.50;99.90;;;;;;5016571;28;20819;-53
2022/06/29 03:01:01;;;;;;;9.27;6.80;;;14.60;99.90;;;;;;5016064;28;19925;-54
2022/06/29 03:03:28;;;;;;;8.25;5.97;;;14.60;99.90;;;;;;5002598;28;20049;-56
2022/06/29 03:05:55;;;;;;;;;;;14.60;99.90;;;;;;4996840;28;20061;-54
2022/06/29 03:08:22;;;;;;;6.28;5.65;;;14.60;99.90;;;;;;4995884;28;19928;-52
2022/06/29 03:10:49;;;;;;;;;;;14.60;99.90;;;;;;5003691;28;20040;-56
2022/06/29 03:13:16;;;;;;;10.65;5.90;;;14.60;99.90;;;;;;5016081;28;19960;-56
2022/06/29 03:15:43;;;;;;;8.48;6.75;;;14.60;99.90;;;;;;5014473;28;20053;-54
2022/06/29 03:18:10;;;;;;;5.90;5.22;;;14.60;99.90;;;;;;5003271;28;20046;-54
2022/06/29 03:20:37;;;;;;;6.40;5.55;;;14.60;99.90;;;;;;4995840;28;20559;-54
2022/06/29 03:23:04;;;;;;;7.43;5.32;;;14.70;99.90;;;;;;4996078;28;20732;-52
2022/06/29 03:25:30;;;;;;;;;;;14.70;99.90;;;;;;4996277;28;20057;-53
2022/06/29 03:27:57;;;;;;;8.45;5.65;;;14.70;99.90;;;;;;5006586;28;20952;-56
2022/06/29 03:30:24;;;;;;;;;;;14.70;99.90;;;;;;5014928;28;20041;-52
2022/06/29 03:32:50;;;;;;;6.68;5.50;;;14.70;99.90;;;;;;5013936;28;19936;-54
2022/06/29 03:35:17;;;;;;;6.22;5.13;;;14.70;99.90;;;;;;5019428;28;20048;-56
2022/06/29 03:37:44;;;;;;;;;;;14.70;99.90;;;;;;5035838;28;20036;-54
2022/06/29 03:40:11;;;;;;;6.47;5.80;;;14.70;99.90;;;;;;5035523;28;19989;-55
2022/06/29 03:42:38;;;;;;;6.82;5.40;;;14.70;99.90;;;;;;5016583;28;20045;-55
2022/06/29 03:45:05;;;;;;;6.80;5.85;;;14.70;99.90;;;;;;5014470;28;20099;-52
2022/06/29 03:47:32;;;;;;;6.88;5.05;;;14.70;99.90;;;;;;5013818;28;20045;-55
2022/06/29 03:49:59;;;;;;;;;;;14.70;99.90;;;;;;5015354;28;20038;-53
2022/06/29 03:52:25;;;;;;;5.95;5.35;;;14.70;99.90;;;;;;5016079;28;20215;-54
2022/06/29 03:54:52;;;;;;;;;;;14.70;99.90;;;;;;5014615;28;20071;-55
2022/06/29 03:57:19;;;;;;;6.75;5.85;;;14.70;99.90;;;;;;5015613;28;20410;-54
2022/06/29 03:59:46;;;;;;;;;;;14.80;99.90;;;;;;5015295;28;20045;-54
2022/06/29 04:02:12;;;;;;;8.63;5.60;;;14.70;99.90;;;;;;5014488;28;20445;-54
2022/06/29 04:04:39;;;;;;;6.57;5.47;;;14.80;99.90;;;;;;5015616;28;20076;-50
2022/06/29 04:07:06;;;;;;;8.23;5.55;;;14.80;99.90;;;;;;5014754;28;20564;-52
2022/06/29 04:09:33;;;;;;;7.90;4.88;;;14.80;99.90;;;;;;5015162;28;20794;-51
2022/06/29 04:12:00;;;;;;;5.18;4.68;;;14.80;99.90;;;;;;5010499;28;20141;-51
2022/06/29 04:14:28;;;;;;;;;;;14.80;99.90;;;;;;5014649;28;20050;-49
2022/06/29 04:16:57;;;;;;;7.35;5.38;;;14.90;99.90;;;;;;5017082;28;19935;-51
2022/06/29 04:19:24;;;;;;;5.68;4.90;;;14.90;99.90;;;;;;5014798;28;20046;-50
2022/06/29 04:21:52;;;;;;;5.53;5.00;;;14.90;99.90;;;;;;5014547;28;20046;-54
2022/06/29 04:24:18;;;;;;;5.43;4.82;;;14.90;99.90;;;;;;5014525;28;20888;-52
2022/06/29 04:26:45;;;;;;;;;;;14.90;99.90;;;;;;5011069;28;20061;-51
2022/06/29 04:29:13;;;;;;;7.93;5.90;;;15.00;99.90;;;;;;4994700;28;19929;-52
2022/06/29 04:31:40;;;;;;;9.23;5.90;;;15.00;99.90;;;;;;4995187;28;20052;-52
2022/06/29 04:34:07;;;;;;;7.38;6.20;;;15.00;99.90;;;;;;4996417;28;20076;-51
2022/06/29 04:36:34;;;;;;;7.82;6.45;;;15.00;99.90;;;;;;5029696;28;20485;-52
2022/06/29 04:39:00;;;;;;;;;;;15.00;99.90;;;;;;5033280;28;20053;-53
2022/06/29 04:41:27;;;;;;;14.18;10.05;;;15.00;99.90;;;;;;5024741;28;19967;-55
2022/06/29 04:43:54;;;;;;;;;;;15.10;99.90;;;;;;5014481;28;20663;-51
2022/06/29 04:46:21;;;;;;;15.07;10.45;;;15.10;99.90;;;;;;5013731;28;20351;-53
2022/06/29 04:48:58;;;;;;;10.50;7.88;;;15.10;99.90;;;;;;5012383;28;20057;-51
2022/06/29 04:51:30;;;;;;;13.45;7.18;;;15.10;99.90;;;;;;5013119;28;20053;-51
2022/06/29 04:53:57;;;;;;;7.95;6.47;;;15.10;99.90;;;;;;5014380;28;20091;-53
2022/06/29 04:56:29;;;;;;;10.07;9.07;;;15.20;99.90;;;;;;5012980;28;20049;-52
2022/06/29 04:58:57;;;;;;;11.25;8.82;;;15.30;99.90;;;;;;5013215;28;20042;-53
2022/06/29 05:01:26;;;;;;;11.48;8.00;;;15.30;99.90;;;;;;5014032;28;20056;-53
2022/06/29 05:03:54;;;;;;;13.23;9.27;;;15.30;99.90;;;;;;5014562;28;20641;-53
2022/06/29 05:06:22;;;;;;;12.60;8.38;;;15.40;99.90;;;;;;5013466;28;20056;-52
2022/06/29 05:08:50;;;;;;;12.00;8.13;;;15.40;99.90;;;;;;5014137;28;20053;-52
2022/06/29 05:11:18;;;;;;;15.75;9.20;;;15.50;99.90;;;;;;5013187;28;20040;-52
2022/06/29 05:13:46;;;;;;;12.30;7.82;;;15.50;99.90;;;;;;5010056;28;20041;-51
2022/06/29 05:16:13;;;;;;;12.65;8.25;;;15.60;99.90;;;;;;5014319;28;20393;-51
2022/06/29 05:18:40;;;;;;;11.02;8.57;;;15.60;99.90;;;;;;5015589;28;20038;-51
2022/06/29 05:21:09;;;;;;;12.00;8.18;;;15.70;99.90;;;;;;5014219;28;20053;-49
2022/06/29 05:23:36;;;;;;;12.38;9.05;;;15.70;99.90;;;;;;5012276;28;20045;-51
2022/06/29 05:26:03;;;;;;;9.10;7.60;;;15.70;99.90;;;;;;5014198;28;20057;-52
2022/06/29 05:28:30;;;;;;;9.05;7.57;;;15.80;99.90;;;;;;5011249;28;20053;-50
2022/06/29 05:30:56;;;;;;;;;;;15.90;99.90;;;;;;5014750;28;20049;-51
2022/06/29 05:33:23;;;;;;;14.77;8.73;;;15.90;99.90;;;;;;5013872;28;19925;-53
2022/06/29 05:35:50;;;;;;;;;;;16.00;99.90;;;;;;5011216;28;20045;-57
2022/06/29 05:38:17;;;;;;;10.88;7.45;;;16.10;99.90;;;;;;5012460;28;20168;-52
2022/06/29 05:40:44;;;;;;;10.77;7.10;;;16.10;99.90;;;;;;5013515;28;20045;-52
2022/06/29 05:43:11;;;;;;;7.95;6.47;;;16.20;99.90;;;;;;5014626;28;20462;-52
2022/06/29 05:45:38;;;;;;;7.72;5.65;;;16.30;99.90;;;;;;5011976;28;20240;-51
2022/06/29 05:48:05;;;;;;;8.95;6.93;;;16.40;99.90;;;;;;5012807;28;20049;-52
2022/06/29 05:50:32;;;;;;;6.50;5.63;;;16.40;99.90;;;;;;5012187;28;20046;-52
2022/06/29 05:52:59;;;;;;;10.18;5.45;;;16.50;99.90;;;;;;5012716;28;20038;-52
2022/06/29 05:55:26;;;;;;;5.00;4.55;;;16.60;99.90;;;;;;5012242;28;20056;-52
2022/06/29 05:57:53;;;;;;;8.20;6.30;;;16.60;99.90;;;;;;5013885;28;20037;-52
2022/06/29 06:00:19;;;;;;;13.57;6.13;;;16.60;99.90;;;;;;5015005;28;20116;-52
2022/06/29 06:02:52;;;;;;;9.52;5.97;;;16.70;99.90;;;;;;5016320;28;20813;-51
2022/06/29 06:05:19;;;;;;;6.13;5.25;;;16.70;99.90;;;;;;5015217;28;20041;-52
2022/06/29 06:07:46;;;;;;;5.88;4.90;;;16.70;99.90;;;;;;5016517;28;20584;-50
2022/06/29 06:10:12;;;;;;;8.23;5.60;;;16.80;99.90;;;;;;5016928;28;21145;-51
2022/06/29 06:12:39;;;;;;;6.50;5.03;;;16.90;99.90;;;;;;5013104;28;20045;-51
2022/06/29 06:15:07;;;;;;;9.25;5.90;;;17.00;99.90;;;;;;5010955;28;20049;-52
2022/06/29 06:17:34;;;;;;;8.88;6.43;;;17.10;99.90;;;;;;5017313;28;20791;-53
2022/06/29 06:20:02;;;;;;;5.43;4.88;;;17.10;99.90;;;;;;5014159;28;20281;-51
2022/06/29 06:22:30;;;;;;;5.82;5.32;;;17.20;99.90;;;;;;5014702;28;20069;-52
2022/06/29 06:24:58;;;;;;;7.22;5.57;;;17.40;99.90;;;;;;5015908;28;20041;-51
2022/06/29 06:27:25;;;;;;;6.97;6.18;;;17.40;99.90;;;;;;5016081;28;20042;-54
2022/06/29 06:29:51;;;;;;;9.70;6.32;;;17.50;99.90;;;;;;5015562;28;20092;-53
2022/06/29 06:32:18;;;;;;;7.88;5.88;;;17.60;99.90;;;;;;5015274;28;20044;-53
2022/06/29 06:34:45;;;;;;;7.65;6.30;;;17.70;99.90;;;;;;5015029;28;20045;-53
2022/06/29 06:37:12;;;;;;;9.30;5.38;;;17.70;99.90;;;;;;5035765;28;20029;-56
2022/06/29 06:39:39;;;;;;;9.07;4.80;;;17.80;99.90;;;;;;5035498;28;20833;-55
2022/06/29 06:42:06;;;;;;;8.52;4.50;;;17.80;99.90;;;;;;5015893;28;20111;-55
2022/06/29 06:44:32;;;;;;;8.55;4.90;;;17.80;99.90;;;;;;5015036;28;20111;-54
2022/06/29 06:47:00;;;;;;;7.88;5.25;;;17.90;99.90;;;;;;5015313;28;20119;-54
2022/06/29 06:49:28;;;;;;;11.38;6.30;;;18.00;99.90;;;;;;5015075;28;20053;-54
2022/06/29 06:51:55;;;;;;;9.57;5.10;;;18.00;99.90;;;;;;5014395;28;20053;-57
2022/06/29 06:54:21;;;;;;;8.13;5.80;;;18.10;99.90;;;;;;5014188;28;20522;-54
2022/06/29 06:56:48;;;;;;;6.65;5.78;;;18.10;99.90;;;;;;5015641;28;20050;-55
2022/06/29 06:59:15;;;;;;;9.65;6.43;;;18.20;99.90;;;;;;5015165;28;20416;-54
2022/06/29 07:01:42;;;;;;;8.23;6.40;;;18.20;99.90;;;;;;5014608;28;20072;-55
2022/06/29 07:04:16;;;;;;;6.55;5.40;;;18.30;99.90;;;;;;5015161;28;20077;-55
2022/06/29 07:06:43;;;;;;;7.75;5.35;;;18.40;99.90;;;;;;5016087;28;20415;-55
2022/06/29 07:09:09;;;;;;;6.63;5.25;;;18.40;99.90;;;;;;5013116;28;20076;-52
2022/06/29 07:11:37;;;;;;;9.90;4.70;;;18.50;99.90;;;;;;5013804;28;20046;-56
2022/06/29 07:14:04;;;;;;;5.70;5.20;;;18.60;99.90;;;;;;5013190;28;20140;-56
2022/06/29 07:16:30;;;;;;;8.93;5.68;;;18.70;99.90;;;;;;5012840;28;20041;-54
2022/06/29 07:18:57;;;;;;;9.80;5.13;;;18.80;99.90;;;;;;5015510;28;20129;-53
2022/06/29 07:21:24;;;;;;;7.50;5.07;;;19.00;99.90;;;;;;5014939;28;20041;-55
2022/06/29 07:23:51;;;;;;;4.78;4.07;;;19.10;99.90;;;;;;5015296;28;20049;-57
2022/06/29 07:26:18;;;;;;;11.20;4.90;;;19.20;99.90;;;;;;5015067;28;20107;-55
2022/06/29 07:28:45;;;;;;;9.73;5.32;;;19.30;99.90;;;;;;5012751;28;20053;-55
2022/06/29 07:31:12;;;;;;;6.65;4.90;;;19.30;99.90;;;;;;5015122;28;20057;-55
2022/06/29 07:33:39;;;;;;;8.43;4.38;;;19.40;99.90;;;;;;5015037;28;20540;-54
2022/06/29 07:36:06;;;;;;;8.57;4.13;;;19.50;99.90;;;;;;5021160;28;20050;-54
2022/06/29 07:38:34;;;;;;;7.10;4.13;;;19.60;99.90;;;;;;5013663;28;20053;-56
2022/06/29 07:41:01;;;;;;;4.38;3.55;;;19.60;99.90;;;;;;5009266;28;20051;-55
2022/06/29 07:43:29;;;;;;;7.40;3.90;;;19.80;99.90;;;;;;5014565;28;20473;-56
2022/06/29 07:45:57;;;;;;;4.95;3.80;;;19.90;99.90;;;;;;5014497;28;20107;-55
2022/06/29 07:48:25;;;;;;;6.13;3.80;;;20.00;99.90;;;;;;5014097;28;20493;-54
2022/06/29 07:50:53;;;;;;;8.07;4.22;;;20.10;99.90;;;;;;5012841;28;20045;-56
2022/06/29 07:53:20;;;;;;;5.85;3.88;;;20.10;99.90;;;;;;5014979;28;20056;-55
2022/06/29 07:55:47;;;;;;;9.13;3.90;;;20.20;99.90;;;;;;5011282;28;20095;-55
2022/06/29 07:58:15;;;;;;;8.15;3.97;;;20.20;99.90;;;;;;5012763;28;20056;-55
2022/06/29 08:00:43;;;;;;;6.07;3.67;;;20.20;99.90;;;;;;5013861;28;20041;-54
2022/06/29 08:03:09;;;;;;;6.07;3.50;;;20.30;99.90;;;;;;5014950;28;20041;-58
2022/06/29 08:05:37;;;;;;;6.35;3.58;;;20.40;99.90;;;;;;5014250;28;20099;-56
2022/06/29 08:08:04;;;;;;;4.78;3.50;;;20.50;99.90;;;;;;5013434;28;20060;-54
2022/06/29 08:10:31;;;;;;;8.50;3.83;;;20.60;99.90;;;;;;5012692;28;20061;-56
2022/06/29 08:12:59;;;;;;;4.88;3.40;;;20.60;99.90;;;;;;5013856;28;20419;-55
2022/06/29 08:15:26;;;;;;;4.35;3.55;;;20.70;99.90;;;;;;5012333;28;20418;-53
2022/06/29 08:17:53;;;;;;;4.68;3.45;;;20.80;99.90;;;;;;5009491;28;20059;-54
2022/06/29 08:20:21;;;;;;;5.78;3.25;;;20.80;99.90;;;;;;5012699;28;20045;-61
2022/06/29 08:22:48;;;;;;;4.82;3.25;;;20.90;99.90;;;;;;5014430;28;20716;-52
2022/06/29 08:25:15;;;;;;;3.40;2.95;;;21.00;99.90;;;;;;5013412;28;20771;-61
2022/06/29 08:27:42;;;;;;;8.27;3.45;;;21.10;99.90;;;;;;5014069;28;20112;-62
2022/06/29 08:30:13;;;;;;;7.00;3.67;;;21.20;99.90;;;;;;5011980;28;20609;-61
2022/06/29 08:32:41;;;;;;;3.65;2.70;;;21.30;99.90;;;;;;5014005;28;20045;-56
2022/06/29 08:35:09;;;;;;;5.28;2.78;;;21.40;99.90;;;;;;5019991;28;20111;-55
2022/06/29 08:37:37;;;;;;;4.53;3.08;;;21.50;99.90;;;;;;5014102;28;20045;-57
2022/06/29 08:40:07;;;;;;;5.00;2.55;;;21.60;99.90;;;;;;5013293;28;20046;-52
2022/06/29 08:42:36;;;;;;;3.70;2.85;;;21.70;99.90;;;;;;5012804;28;20125;-51
2022/06/29 08:45:04;;;;;;;3.92;3.20;;;21.80;99.90;;;;;;5013198;28;20075;-53
2022/06/29 08:47:31;;;;;;;8.43;3.40;;;21.80;99.90;;;;;;5013136;28;20486;-53
2022/06/29 08:49:58;;;;;;;4.88;3.25;;;21.90;99.90;;;;;;5013575;28;20131;-53
2022/06/29 08:52:26;;;;;;;4.22;3.17;;;22.00;99.90;;;;;;5013765;28;20124;-53
2022/06/29 08:54:54;;;;;;;6.18;3.35;;;22.10;99.90;;;;;;5012975;28;20050;-53
2022/06/29 08:57:23;;;;;;;10.38;3.17;;;22.20;99.90;;;;;;5012659;28;20041;-54
2022/06/29 08:59:53;;;;;;;7.90;2.90;;;22.30;99.90;;;;;;5012841;28;20129;-55
2022/06/29 09:02:29;;;;;;;5.00;2.60;;;22.40;99.90;;;;;;5012668;28;20065;-54
2022/06/29 09:04:56;;;;;;;8.82;2.80;;;22.60;99.90;;;;;;5012360;28;20128;-53
2022/06/29 09:07:24;;;;;;;5.72;2.30;;;22.70;99.90;;;;;;5013459;28;20790;-56
2022/06/29 09:09:58;;;;;;;5.72;2.80;;;22.90;99.90;;;;;;5012655;28;20080;-57
2022/06/29 09:12:26;;;;;;;6.53;2.63;;;23.00;99.90;;;;;;5011221;28;20049;-57
2022/06/29 09:14:53;;;;;;;3.15;2.05;;;23.30;99.90;;;;;;5011489;28;20069;-57
2022/06/29 09:17:20;;;;;;;6.95;2.33;;;23.40;99.90;;;;;;5010558;28;20045;-57
2022/06/29 09:19:48;;;;;;;8.23;3.83;;;23.70;99.90;;;;;;5012956;28;20053;-55
2022/06/29 09:22:24;;;;;;;;;;;24.00;99.90;;;;;;5012666;28;20049;-57
2022/06/29 09:24:52;;;;;;;6.30;3.30;;;24.10;99.90;;;;;;5013555;28;19925;-54
2022/06/29 09:27:43;;;;;;;8.50;3.50;;;24.30;99.90;;;;;;5013372;28;20079;-56
2022/06/29 09:30:36;;;;;;;5.60;3.28;;;24.30;99.90;;;;;;5012591;28;20058;-54
2022/06/29 09:33:06;;;;;;;5.93;2.40;;;24.40;99.90;;;;;;5005408;28;20038;-54
2022/06/29 09:35:35;;;;;;;8.65;3.00;;;24.40;99.90;;;;;;5012152;28;20041;-54
2022/06/29 09:38:23;;;;;;;3.95;2.10;;;24.40;99.90;;;;;;5015858;28;20068;-52
2022/06/29 09:41:00;;;;;;;9.55;3.28;;;24.40;99.90;;;;;;5013758;28;20468;-53
2022/06/29 09:43:28;;;;;;;8.20;3.08;;;24.50;99.90;;;;;;5011202;28;20455;-54
2022/06/29 09:45:55;;;;;;;4.32;2.53;;;24.70;99.90;;;;;;5016243;28;20830;-53
2022/06/29 09:48:24;;;;;;;5.30;2.30;;;25.00;99.90;;;;;;5014037;28;20275;-55
2022/06/29 09:50:52;;;;;;;5.85;2.85;;;25.30;99.90;;;;;;5016501;28;20125;-52
2022/06/29 09:53:39;;;;;;;6.60;2.30;;;25.50;99.80;;;;;;5016852;28;20064;-53
2022/06/29 09:56:13;;;;;;;3.38;2.03;;;25.50;99.90;;;;;;5016778;28;20881;-54
2022/06/29 09:58:48;;;;;;;5.22;2.28;;;25.70;99.90;;;;;;5016437;28;20049;-55
2022/06/29 10:04:10;;;;;;;5.28;2.33;;;25.80;94.70;;;;;;5017214;28;20042;-56
2022/06/29 10:06:37;;;;;;;3.45;2.22;;;25.60;95.80;;;;;;5016079;28;20117;-57
2022/06/29 10:09:04;;;;;;;7.85;2.40;;;25.50;99.90;;;;;;5016576;28;20049;-57
2022/06/29 10:14:42;;;;;;;3.90;2.65;;;25.30;99.30;;;;;;5016511;28;20317;-58
2022/06/29 10:17:40;;;;;;;5.32;2.50;;;25.00;99.90;;;;;;5005946;28;20046;-59
2022/06/29 10:20:16;;;;;;;6.68;2.20;;;25.00;99.90;;;;;;5014296;28;20042;-57
2022/06/29 10:22:43;;;;;;;4.38;2.08;;;25.00;99.90;;;;;;5016115;28;20053;-56
2022/06/29 10:25:12;;;;;;;6.13;2.85;;;25.00;99.90;;;;;;5016262;28;20151;-57
2022/06/29 10:27:59;;;;;;;5.68;2.40;;;25.00;99.20;;;;;;5012462;28;20053;-55
2022/06/29 10:30:28;;;;;;;3.47;2.50;;;25.00;99.90;;;;;;5009196;28;20156;-56
2022/06/29 10:33:36;;;;;;;6.72;2.60;;;25.10;99.90;;;;;;4995943;28;20044;-57
2022/06/29 10:36:08;;;;;;;6.75;2.40;;;25.10;99.90;;;;;;5018760;28;20038;-56
2022/06/29 10:38:58;;;;;;;9.23;2.70;;;25.00;99.90;;;;;;5015215;28;20229;-56
2022/06/29 10:44:10;;;;;;;4.30;2.50;;;25.00;99.90;;;;;;5014155;28;20047;-57
2022/06/29 10:46:57;;;;;;;4.40;2.20;;;25.00;99.90;;;;;;5016557;28;20091;-57
2022/06/29 10:49:25;;;;;;;3.97;2.50;;;25.10;99.90;;;;;;4995498;28;20057;-56
2022/06/29 10:51:53;;;;;;;4.75;2.88;;;25.30;99.90;;;;;;4996155;28;20050;-57
2022/06/29 10:54:25;;;;;;;4.95;2.35;;;25.60;99.90;;;;;;4995561;28;20057;-56
2022/06/29 10:56:53;;;;;;;5.45;2.45;;;25.80;99.90;;;;;;5008477;28;20045;-57
2022/06/29 10:59:37;;;;;;;4.35;2.10;;;25.80;98.20;;;;;;5015190;28;20226;-56
2022/06/29 11:02:12;;;;;;;5.43;2.72;;;25.80;97.00;;;;;;5015749;28;20490;-56
2022/06/29 11:04:40;;;;;;;4.50;2.85;;;25.70;97.60;;;;;;5015958;28;20046;-56
2022/06/29 11:12:51;;;;;;;3.63;2.17;;;25.50;99.90;;;;;;5015435;28;20504;-57
2022/06/29 11:18:08;;;;;;;7.15;2.47;;;25.60;99.90;;;;;;5009331;28;20107;-56
2022/06/29 11:20:35;;;;;;;4.38;2.67;;;25.80;99.90;;;;;;5012489;28;20046;-56
2022/06/29 11:23:02;;;;;;;9.18;2.55;;;25.90;99.90;;;;;;5015200;28;20485;-54
2022/06/29 11:25:35;;;;;;;4.05;2.53;;;26.10;99.90;;;;;;5015048;28;20052;-57
2022/06/29 11:28:02;;;;;;;6.00;2.78;;;26.20;99.90;;;;;;5013164;28;20614;-57
2022/06/29 11:30:29;;;;;;;5.38;2.72;;;26.20;94.50;;;;;;5013493;28;20091;-56
2022/06/29 11:32:56;;;;;;;3.55;2.10;;;26.00;96.30;;;;;;5014646;28;20111;-56
2022/06/29 11:35:25;;;;;;;4.88;2.25;;;25.90;98.40;;;;;;5020038;28;20417;-58
2022/06/29 11:37:53;;;;;;;5.88;2.65;;;25.80;99.70;;;;;;5015750;28;20054;-55
2022/06/29 11:40:29;;;;;;;5.43;2.70;;;25.70;99.90;;;;;;5013292;28;20403;-55
2022/06/29 11:43:22;;;;;;;10.88;3.80;;;25.50;99.90;;;;;;5010280;28;20053;-54
2022/06/29 11:45:50;;;;;;;5.25;2.60;;;25.60;99.90;;;;;;5013053;28;20068;-56
2022/06/29 11:48:25;;;;;;;4.78;3.80;;;25.70;99.90;;;;;;5014602;28;20037;-55
2022/06/29 11:50:56;;;;;;;5.93;3.08;;;25.70;99.90;;;;;;5014674;28;20459;-55
2022/06/29 11:53:44;;;;;;;3.60;2.47;;;25.80;99.90;;;;;;5014945;28;20041;-55
2022/06/29 11:56:17;;;;;;;3.55;2.88;;;25.70;99.90;;;;;;5013867;28;20261;-54
2022/06/29 11:58:49;;;;;;;4.22;2.22;;;25.60;98.10;;;;;;5004910;28;20038;-54
2022/06/29 12:01:21;;;;;;;4.13;2.53;;;25.50;99.90;;;;;;5013472;28;20048;-54
2022/06/29 12:03:49;;;;;;;4.43;2.75;;;25.60;99.90;;;;;;5014435;28;20068;-55
2022/06/29 12:06:17;;;;;;;8.88;2.75;;;25.70;99.90;;;;;;5014168;28;20053;-60
2022/06/29 12:08:45;;;;;;;6.20;2.72;;;26.00;99.90;;;;;;5014305;28;20508;-53
2022/06/29 12:11:12;;;;;;;8.25;2.80;;;26.20;99.90;;;;;;5014491;28;20041;-53
2022/06/29 12:13:39;;;;;;;3.15;2.40;;;26.50;99.90;;;;;;5014478;28;20061;-51
2022/06/29 12:16:06;;;;;;;5.47;2.42;;;26.70;95.50;;;;;;5014277;28;20314;-56
2022/06/29 12:18:33;;;;;;;8.38;3.38;;;26.90;95.80;;;;;;5006147;28;20042;-54
2022/06/29 12:20:59;;;;;;;5.47;2.83;;;27.10;93.30;;;;;;5011619;28;20573;-54
2022/06/29 12:23:28;;;;;;;3.35;2.30;;;27.30;99.00;;;;;;5014318;28;20041;-56
2022/06/29 12:25:55;;;;;;;5.57;2.40;;;27.50;91.50;;;;;;5014098;28;20053;-55
2022/06/29 12:28:22;;;;;;;6.75;2.30;;;27.70;91.60;;;;;;5013996;28;20052;-56
2022/06/29 12:30:51;;;;;;;4.10;1.98;;;27.70;86.10;;;;;;5015206;28;20049;-56
2022/06/29 12:33:19;;;;;;;4.88;2.50;;;27.60;86.70;;;;;;5014758;28;20076;-54
2022/06/29 12:35:46;;;;;;;4.88;2.47;;;27.50;86.20;;;;;;5021279;28;20056;-66
2022/06/29 12:38:13;;;;;;;6.53;3.10;;;27.30;84.80;;;;;;5014993;28;20064;-63
2022/06/29 12:40:40;;;;;;;2.90;2.58;;;27.20;80.00;;;;;;5016234;28;20812;-63
2022/06/29 12:43:07;;;;;;;5.95;2.67;;;27.20;89.70;;;;;;5013103;28;20049;-62
2022/06/29 12:45:34;;;;;;;6.75;2.50;;;27.30;97.60;;;;;;5003934;28;20037;-62
2022/06/29 12:48:01;;;;;;;5.05;2.55;;;27.50;90.00;;;;;;5014513;28;20100;-63
2022/06/29 12:50:28;;;;;;;8.52;2.67;;;27.70;92.10;;;;;;5014000;28;20053;-62
2022/06/29 12:52:55;;;;;;;7.80;2.25;;;27.80;93.00;;;;;;5013694;28;20033;-62
2022/06/29 12:55:22;;;;;;;6.55;2.38;;;27.90;87.80;;;;;;5014246;28;20049;-63
2022/06/29 12:57:49;;;;;;;5.47;2.47;;;28.10;93.70;;;;;;5014067;28;20045;-63
2022/06/29 13:00:16;;;;;;;4.90;2.22;;;28.30;78.90;;;;;;5013854;28;20041;-63
2022/06/29 13:02:43;;;;;;;9.50;2.45;;;28.30;77.80;;;;;;5013981;28;20144;-63
2022/06/29 13:05:10;;;;;;;7.35;2.58;;;28.30;82.20;;;;;;5014661;28;20114;-63
2022/06/29 13:07:37;;;;;;;2.20;2.00;;;28.30;78.20;;;;;;5012925;28;20049;-63
2022/06/29 13:10:07;;;;;;;7.93;2.78;;;28.20;79.30;;;;;;5013821;28;20463;-63
2022/06/29 13:12:34;;;;;;;5.43;2.45;;;28.20;88.60;;;;;;5013948;28;20571;-63
2022/06/29 13:15:03;;;;;;;7.50;2.55;;;28.30;90.90;;;;;;4996431;28;20041;-63
2022/06/29 13:17:30;;;;;;;5.57;2.88;;;28.40;85.50;;;;;;5004854;28;20049;-63
2022/06/29 13:19:56;;;;;;;6.50;2.33;;;28.40;82.90;;;;;;4999640;28;20563;-62